Time;durP1;ratioP1;P1;durP2;ratioP2;P2;SDS_P1;SDS_P2;PMS_P1;PMS_P2;Temp;Humidity;BMP_temperature;BMP_pressure;BME280_temperature;BME280_humidity;BME280_pressure;Samples;Min_cycle;Max_cycle;Signal;HPM_P1;HPM_P2
2023/04/17 00:00:03;;;;;;;2.60;2.40;;;;;;;;;;5073470;28;20029;-61
2023/04/17 00:02:29;;;;;;;2.65;2.45;;;;;;;;;;5073120;28;20017;-61
2023/04/17 00:04:55;;;;;;;2.83;2.60;;;;;;;;;;5072930;28;20027;-62
2023/04/17 00:07:21;;;;;;;3.08;2.38;;;;;;;;;;5073344;28;20100;-61
2023/04/17 00:09:49;;;;;;;2.50;2.30;;;;;;;;;;5072677;28;20353;-61
2023/04/17 00:12:15;;;;;;;2.85;2.35;;;;;;;;;;5073031;28;20028;-62
2023/04/17 00:14:41;;;;;;;3.30;2.22;;;;;;;;;;5073172;28;20020;-62
2023/04/17 00:17:06;;;;;;;2.67;2.42;;;;;;;;;;5073196;28;20368;-63
2023/04/17 00:19:32;;;;;;;2.75;2.55;;;;;;;;;;5072829;28;20078;-63
2023/04/17 00:21:57;;;;;;;2.30;2.08;;;;;;;;;;5072851;28;20028;-62
2023/04/17 00:24:23;;;;;;;2.30;2.13;;;;;;;;;;5072995;28;20035;-61
2023/04/17 00:26:49;;;;;;;2.35;2.13;;;;;;;;;;5072954;28;20032;-62
2023/04/17 00:29:14;;;;;;;2.50;2.30;;;;;;;;;;5072648;28;20029;-64
2023/04/17 00:31:40;;;;;;;2.70;2.50;;;;;;;;;;5072999;28;20057;-63
2023/04/17 00:34:05;;;;;;;2.40;2.20;;;;;;;;;;5072423;28;20493;-63
2023/04/17 00:36:31;;;;;;;2.55;2.35;;;;;;;;;;5072630;28;20035;-63
2023/04/17 00:38:57;;;;;;;2.72;2.20;;;;;;;;;;5072498;28;20023;-61
2023/04/17 00:41:23;;;;;;;2.67;2.47;;;;;;;;;;5072842;28;20025;-62
2023/04/17 00:43:48;;;;;;;3.35;2.20;;;;;;;;;;5072706;28;20079;-63
2023/04/17 00:46:14;;;;;;;5.15;2.30;;;;;;;;;;5072446;28;20043;-62
2023/04/17 00:48:41;;;;;;;2.42;2.22;;;;;;;;;;5072699;28;20016;-62
2023/04/17 00:51:07;;;;;;;2.50;2.30;;;;;;;;;;5072844;28;20037;-61
2023/04/17 00:53:32;;;;;;;3.15;2.30;;;;;;;;;;5072702;28;20407;-62
2023/04/17 00:56:00;;;;;;;2.35;2.15;;;;;;;;;;5072370;28;20107;-64
2023/04/17 00:58:26;;;;;;;2.42;2.22;;;;;;;;;;5072632;28;20047;-63
2023/04/17 01:00:51;;;;;;;2.58;2.38;;;;;;;;;;5072352;28;20472;-63
2023/04/17 01:03:17;;;;;;;2.30;2.10;;;;;;;;;;5072559;28;20029;-63
2023/04/17 01:05:48;;;;;;;2.63;2.30;;;;;;;;;;5072243;28;20052;-63
2023/04/17 01:08:14;;;;;;;2.35;2.15;;;;;;;;;;5072288;28;20028;-63
2023/04/17 01:10:40;;;;;;;2.40;2.20;;;;;;;;;;5072562;28;20048;-63
2023/04/17 01:13:07;;;;;;;2.45;2.25;;;;;;;;;;5072525;28;20429;-63
2023/04/17 01:15:33;;;;;;;2.22;2.03;;;;;;;;;;5072131;28;20039;-63
2023/04/17 01:17:59;;;;;;;3.25;2.50;;;;;;;;;;5072461;28;20048;-63
2023/04/17 01:20:28;;;;;;;2.30;2.10;;;;;;;;;;5072180;28;20543;-63
2023/04/17 01:22:54;;;;;;;2.30;2.10;;;;;;;;;;5076141;28;20090;-62
2023/04/17 01:25:20;;;;;;;2.45;2.25;;;;;;;;;;5076167;28;20358;-61
2023/04/17 01:27:46;;;;;;;2.33;2.13;;;;;;;;;;5076346;28;20040;-62
2023/04/17 01:30:12;;;;;;;2.35;2.10;;;;;;;;;;5076085;28;20476;-62
2023/04/17 01:32:37;;;;;;;2.42;2.22;;;;;;;;;;5076304;28;20021;-62
2023/04/17 01:35:03;;;;;;;2.65;2.42;;;;;;;;;;5075783;28;20063;-62
2023/04/17 01:37:29;;;;;;;2.13;1.98;;;;;;;;;;5076270;28;20028;-63
2023/04/17 01:39:54;;;;;;;2.83;2.25;;;;;;;;;;5075921;28;20388;-63
2023/04/17 01:42:21;;;;;;;2.55;2.33;;;;;;;;;;5075794;28;20035;-63
2023/04/17 01:44:47;;;;;;;2.28;2.03;;;;;;;;;;5058100;28;20078;-62
2023/04/17 01:47:12;;;;;;;2.20;1.95;;;;;;;;;;5076042;28;20465;-63
2023/04/17 01:49:38;;;;;;;2.47;2.28;;;;;;;;;;5075739;28;20025;-63
2023/04/17 01:52:04;;;;;;;2.42;2.22;;;;;;;;;;5075701;28;20524;-63
2023/04/17 01:54:30;;;;;;;2.67;2.20;;;;;;;;;;5075566;28;20401;-64
2023/04/17 01:56:56;;;;;;;2.42;2.22;;;;;;;;;;5075573;28;20035;-63
2023/04/17 01:59:22;;;;;;;2.50;1.98;;;;;;;;;;5075517;28;20032;-63
2023/04/17 02:01:49;;;;;;;2.30;2.10;;;;;;;;;;5075678;28;20025;-62
2023/04/17 02:04:15;;;;;;;2.28;2.10;;;;;;;;;;5075607;28;20032;-62
2023/04/17 02:06:40;;;;;;;2.42;2.22;;;;;;;;;;5075601;28;20538;-62
2023/04/17 02:09:06;;;;;;;3.22;2.50;;;;;;;;;;5075585;28;20515;-62
2023/04/17 02:11:31;;;;;;;3.80;2.40;;;;;;;;;;5075667;28;20020;-62
2023/04/17 02:13:57;;;;;;;4.28;2.10;;;;;;;;;;5075104;28;20025;-62
2023/04/17 02:16:22;;;;;;;2.42;2.22;;;;;;;;;;5075316;28;20119;-62
2023/04/17 02:18:49;;;;;;;2.30;2.10;;;;;;;;;;5075083;28;20020;-63
2023/04/17 02:21:15;;;;;;;2.70;2.50;;;;;;;;;;5075085;28;20050;-63
2023/04/17 02:23:41;;;;;;;1.98;1.88;;;;;;;;;;5075388;28;20020;-63
2023/04/17 02:26:06;;;;;;;2.20;2.08;;;;;;;;;;5075245;28;20480;-63
2023/04/17 02:28:32;;;;;;;2.40;2.20;;;;;;;;;;5074914;28;20040;-63
2023/04/17 02:30:57;;;;;;;2.22;2.03;;;;;;;;;;5075283;28;20017;-63
2023/04/17 02:33:23;;;;;;;2.40;2.20;;;;;;;;;;5074475;28;20076;-63
2023/04/17 02:35:49;;;;;;;2.88;2.40;;;;;;;;;;5074917;28;20024;-64
2023/04/17 02:38:14;;;;;;;2.25;2.10;;;;;;;;;;5075371;28;20035;-62
2023/04/17 02:40:40;;;;;;;2.75;2.20;;;;;;;;;;5074832;28;20021;-62
2023/04/17 02:43:05;;;;;;;2.25;2.05;;;;;;;;;;5075060;28;20425;-62
2023/04/17 02:45:31;;;;;;;2.35;2.15;;;;;;;;;;5074638;28;20518;-62
2023/04/17 02:47:56;;;;;;;2.30;2.10;;;;;;;;;;5074857;28;20024;-62
2023/04/17 02:50:22;;;;;;;2.70;2.08;;;;;;;;;;5074664;28;20097;-62
2023/04/17 02:52:47;;;;;;;2.40;2.20;;;;;;;;;;5074820;28;20031;-62
2023/04/17 02:55:13;;;;;;;3.00;2.22;;;;;;;;;;5074482;28;20025;-63
2023/04/17 02:57:39;;;;;;;2.25;2.10;;;;;;;;;;5074491;28;20028;-63
2023/04/17 03:00:10;;;;;;;2.55;2.35;;;;;;;;;;5074399;28;20081;-63
2023/04/17 03:02:36;;;;;;;2.70;2.25;;;;;;;;;;5074659;28;20028;-63
2023/04/17 03:05:05;;;;;;;2.50;2.30;;;;;;;;;;5074302;28;20025;-63
2023/04/17 03:07:32;;;;;;;2.30;2.10;;;;;;;;;;5074526;28;20476;-63
2023/04/17 03:09:58;;;;;;;2.28;2.08;;;;;;;;;;5074569;28;20361;-64
2023/04/17 03:12:24;;;;;;;2.28;2.08;;;;;;;;;;5074099;28;20031;-64
2023/04/17 03:14:50;;;;;;;2.17;1.98;;;;;;;;;;5074145;28;20033;-64
2023/04/17 03:17:16;;;;;;;2.30;2.10;;;;;;;;;;5074391;28;20032;-64
2023/04/17 03:19:41;;;;;;;2.30;2.10;;;;;;;;;;5074080;28;20025;-63
2023/04/17 03:22:07;;;;;;;2.30;2.10;;;;;;;;;;5074028;28;20103;-63
2023/04/17 03:24:32;;;;;;;2.42;2.05;;;;;;;;;;5073988;28;20468;-62
2023/04/17 03:26:59;;;;;;;2.38;2.17;;;;;;;;;;5073763;28;20032;-62
2023/04/17 03:29:25;;;;;;;2.10;2.00;;;;;;;;;;5074133;28;20361;-62
2023/04/17 03:31:51;;;;;;;2.17;2.05;;;;;;;;;;5073854;28;20066;-62
2023/04/17 03:34:17;;;;;;;2.20;2.00;;;;;;;;;;5073564;28;20404;-62
2023/04/17 03:36:43;;;;;;;3.45;2.20;;;;;;;;;;5073948;28;20044;-62
2023/04/17 03:39:09;;;;;;;2.42;2.20;;;;;;;;;;5073900;28;20361;-62
2023/04/17 03:41:37;;;;;;;2.28;2.08;;;;;;;;;;5073516;28;20501;-62
2023/04/17 03:44:03;;;;;;;2.00;1.90;;;;;;;;;;5072946;28;20029;-63
2023/04/17 03:46:28;;;;;;;2.25;2.08;;;;;;;;;;5073356;28;20036;-63
2023/04/17 03:48:54;;;;;;;2.30;2.10;;;;;;;;;;5073469;28;20119;-64
2023/04/17 03:51:19;;;;;;;2.50;2.25;;;;;;;;;;5073603;28;20024;-64
2023/04/17 03:53:45;;;;;;;2.72;2.15;;;;;;;;;;5073323;28;20028;-64
2023/04/17 03:56:11;;;;;;;2.25;2.05;;;;;;;;;;5073236;28;20032;-63
2023/04/17 03:58:36;;;;;;;2.20;2.00;;;;;;;;;;5073522;28;20559;-63
2023/04/17 04:01:02;;;;;;;1.95;1.85;;;;;;;;;;5073122;28;20115;-63
2023/04/17 04:03:28;;;;;;;2.92;2.10;;;;;;;;;;5088917;28;20048;-62
2023/04/17 04:05:53;;;;;;;2.00;1.90;;;;;;;;;;5073019;28;20024;-62
2023/04/17 04:08:19;;;;;;;2.28;2.08;;;;;;;;;;5073014;28;20468;-62
2023/04/17 04:10:45;;;;;;;2.58;1.90;;;;;;;;;;5073242;28;20410;-62
2023/04/17 04:13:11;;;;;;;2.28;2.08;;;;;;;;;;5072859;28;20048;-62
2023/04/17 04:15:37;;;;;;;2.50;2.30;;;;;;;;;;5072882;28;20480;-62
2023/04/17 04:18:03;;;;;;;1.90;1.80;;;;;;;;;;5072881;28;20023;-62
2023/04/17 04:20:29;;;;;;;2.40;2.20;;;;;;;;;;5073003;28;20149;-62
2023/04/17 04:22:58;;;;;;;2.30;2.10;;;;;;;;;;5073054;28;20060;-62
2023/04/17 04:25:24;;;;;;;2.10;1.90;;;;;;;;;;5072889;28;20382;-62
2023/04/17 04:27:50;;;;;;;2.03;1.92;;;;;;;;;;5072963;28;20093;-62
2023/04/17 04:30:16;;;;;;;2.10;1.90;;;;;;;;;;5072667;28;20467;-63
2023/04/17 04:32:44;;;;;;;2.30;2.10;;;;;;;;;;5073102;28;20353;-62
2023/04/17 04:35:13;;;;;;;2.50;2.00;;;;;;;;;;5072389;28;20488;-63
2023/04/17 04:37:45;;;;;;;2.30;2.10;;;;;;;;;;5072540;28;20017;-62
2023/04/17 04:40:13;;;;;;;2.63;1.90;;;;;;;;;;5087460;28;20376;-62
2023/04/17 04:42:40;;;;;;;2.05;1.95;;;;;;;;;;5072896;28;20415;-63
2023/04/17 04:45:07;;;;;;;2.28;1.80;;;;;;;;;;5072561;28;20025;-62
2023/04/17 04:47:33;;;;;;;2.28;2.03;;;;;;;;;;5072777;28;20024;-62
2023/04/17 04:49:59;;;;;;;2.17;1.98;;;;;;;;;;5072419;28;20036;-61
2023/04/17 04:52:25;;;;;;;2.30;2.10;;;;;;;;;;5072352;28;20025;-62
2023/04/17 04:54:51;;;;;;;2.10;2.00;;;;;;;;;;5072083;28;20020;-61
2023/04/17 04:57:17;;;;;;;2.40;2.20;;;;;;;;;;5071946;28;20478;-61
2023/04/17 04:59:42;;;;;;;2.30;2.10;;;;;;;;;;5072201;28;20029;-61
2023/04/17 05:02:08;;;;;;;1.98;1.88;;;;;;;;;;5072494;28;20035;-61
2023/04/17 05:04:34;;;;;;;2.17;1.98;;;;;;;;;;5072296;28;20031;-62
2023/04/17 05:07:00;;;;;;;2.33;2.20;;;;;;;;;;5072132;28;20388;-60
2023/04/17 05:09:26;;;;;;;2.08;1.98;;;;;;;;;;5072095;28;20171;-62
2023/04/17 05:11:52;;;;;;;1.92;1.83;;;;;;;;;;5072226;28;20024;-61
2023/04/17 05:14:18;;;;;;;2.30;2.10;;;;;;;;;;5072175;28;20024;-61
2023/04/17 05:16:44;;;;;;;2.15;2.00;;;;;;;;;;5072347;28;20025;-61
2023/04/17 05:19:10;;;;;;;1.98;1.88;;;;;;;;;;5072398;28;20413;-61
2023/04/17 05:21:35;;;;;;;2.17;2.08;;;;;;;;;;5072377;28;20349;-63
2023/04/17 05:24:01;;;;;;;2.10;1.90;;;;;;;;;;5072242;28;20029;-62
2023/04/17 05:26:26;;;;;;;2.78;2.58;;;;;;;;;;5087581;28;20107;-62
2023/04/17 05:28:52;;;;;;;2.00;1.90;;;;;;;;;;5072003;28;20029;-61
2023/04/17 05:31:17;;;;;;;2.15;2.00;;;;;;;;;;5072219;28;20108;-61
2023/04/17 05:33:43;;;;;;;2.05;1.95;;;;;;;;;;5053821;28;20059;-60
2023/04/17 05:36:09;;;;;;;1.90;1.80;;;;;;;;;;5072288;28;20021;-61
2023/04/17 05:38:34;;;;;;;2.30;2.10;;;;;;;;;;5072233;28;20031;-61
2023/04/17 05:41:00;;;;;;;2.42;2.22;;;;;;;;;;5072225;28;20021;-62
2023/04/17 05:43:26;;;;;;;2.33;2.13;;;;;;;;;;5071773;28;20469;-61
2023/04/17 05:45:52;;;;;;;3.08;2.05;;;;;;;;;;5072020;28;20050;-61
2023/04/17 05:48:18;;;;;;;1.90;1.75;;;;;;;;;;5072109;28;20491;-62
2023/04/17 05:50:43;;;;;;;2.17;2.08;;;;;;;;;;5071770;28;20023;-62
2023/04/17 05:53:09;;;;;;;2.42;2.22;;;;;;;;;;5071742;28;20099;-63
2023/04/17 05:55:35;;;;;;;2.25;2.05;;;;;;;;;;5071739;28;20043;-63
2023/04/17 05:58:01;;;;;;;2.33;2.10;;;;;;;;;;5071909;28;20142;-63
2023/04/17 06:00:27;;;;;;;3.50;2.17;;;;;;;;;;5071956;28;20017;-64
2023/04/17 06:02:53;;;;;;;1.80;1.70;;;;;;;;;;5071591;28;20025;-64
2023/04/17 06:05:19;;;;;;;1.98;1.88;;;;;;;;;;5071852;28;20028;-62
2023/04/17 06:07:45;;;;;;;2.47;2.15;;;;;;;;;;5073382;28;20051;-62
2023/04/17 06:10:11;;;;;;;2.30;2.10;;;;;;;;;;5075231;28;20056;-62
2023/04/17 06:12:38;;;;;;;2.10;1.90;;;;;;;;;;5075186;28;20032;-61
2023/04/17 06:15:04;;;;;;;2.45;2.10;;;;;;;;;;5075432;28;20067;-61
2023/04/17 06:17:30;;;;;;;2.72;2.00;;;;;;;;;;5075287;28;20060;-61
2023/04/17 06:19:56;;;;;;;2.65;2.45;;;;;;;;;;5075416;28;20099;-61
2023/04/17 06:22:21;;;;;;;3.33;2.92;;;;;;;;;;5075032;28;20499;-62
2023/04/17 06:24:47;;;;;;;2.33;2.13;;;;;;;;;;5074996;28;20028;-63
2023/04/17 06:27:13;;;;;;;2.65;2.30;;;;;;;;;;5074930;28;20128;-63
2023/04/17 06:29:39;;;;;;;2.60;2.33;;;;;;;;;;5074940;28;20056;-61
2023/04/17 06:32:05;;;;;;;3.08;2.67;;;;;;;;;;5074837;28;20034;-61
2023/04/17 06:34:32;;;;;;;2.83;2.53;;;;;;;;;;5074793;28;20149;-63
2023/04/17 06:36:59;;;;;;;3.70;2.85;;;;;;;;;;5074788;28;20082;-61
2023/04/17 06:39:24;;;;;;;3.22;2.75;;;;;;;;;;5074810;28;20028;-62
2023/04/17 06:41:50;;;;;;;3.30;2.65;;;;;;;;;;5074726;28;20491;-61
2023/04/17 06:44:19;;;;;;;2.88;2.67;;;;;;;;;;5074684;28;20024;-61
2023/04/17 06:46:44;;;;;;;3.17;2.88;;;;;;;;;;5074833;28;20032;-62
2023/04/17 06:49:10;;;;;;;3.60;2.90;;;;;;;;;;5074622;28;20423;-61
2023/04/17 06:51:36;;;;;;;3.72;2.90;;;;;;;;;;5074507;28;20017;-61
2023/04/17 06:54:01;;;;;;;3.80;2.90;;;;;;;;;;5074747;28;20029;-62
2023/04/17 06:56:27;;;;;;;5.10;3.03;;;;;;;;;;5074657;28;20025;-61
2023/04/17 06:58:52;;;;;;;3.97;3.30;;;;;;;;;;5074475;28;20503;-62
2023/04/17 07:01:19;;;;;;;3.95;3.00;;;;;;;;;;5074636;28;20491;-62
2023/04/17 07:03:45;;;;;;;5.65;3.40;;;;;;;;;;5074588;28;20033;-61
2023/04/17 07:06:11;;;;;;;4.68;3.70;;;;;;;;;;5074125;28;20126;-63
2023/04/17 07:08:36;;;;;;;5.38;3.80;;;;;;;;;;5074166;28;20024;-62
2023/04/17 07:11:02;;;;;;;5.10;3.53;;;;;;;;;;5074175;28;20078;-62
2023/04/17 07:13:30;;;;;;;5.57;3.67;;;;;;;;;;5089724;28;20021;-61
2023/04/17 07:15:56;;;;;;;5.85;3.47;;;;;;;;;;5074188;28;20107;-63
2023/04/17 07:18:24;;;;;;;4.97;3.60;;;;;;;;;;5073517;28;20028;-63
2023/04/17 07:20:50;;;;;;;3.78;3.45;;;;;;;;;;5073835;28;20070;-62
2023/04/17 07:23:15;;;;;;;5.50;3.40;;;;;;;;;;5073906;28;20020;-61
2023/04/17 07:25:41;;;;;;;5.40;3.70;;;;;;;;;;5074071;28;20028;-63
2023/04/17 07:28:09;;;;;;;6.90;3.72;;;;;;;;;;5075768;28;20357;-65
2023/04/17 07:30:34;;;;;;;4.88;4.03;;;;;;;;;;5087670;28;20085;-64
2023/04/17 07:33:00;;;;;;;5.38;3.78;;;;;;;;;;5087691;28;20024;-64
2023/04/17 07:35:27;;;;;;;6.88;4.22;;;;;;;;;;5068024;28;20071;-63
2023/04/17 07:37:54;;;;;;;5.95;4.03;;;;;;;;;;5087889;28;20028;-63
2023/04/17 07:40:20;;;;;;;6.05;3.90;;;;;;;;;;5085177;28;20035;-63
2023/04/17 07:42:46;;;;;;;6.88;4.10;;;;;;;;;;5086900;28;20031;-61
2023/04/17 07:45:12;;;;;;;5.95;4.18;;;;;;;;;;5088038;28;20023;-63
2023/04/17 07:47:37;;;;;;;5.72;3.75;;;;;;;;;;5089392;28;20543;-63
2023/04/17 07:50:03;;;;;;;5.65;4.30;;;;;;;;;;5092862;28;20012;-60
2023/04/17 07:52:29;;;;;;;7.07;4.05;;;;;;;;;;5089524;28;20028;-61
2023/04/17 07:54:55;;;;;;;6.03;4.10;;;;;;;;;;5089876;28;20047;-61
2023/04/17 07:57:25;;;;;;;4.68;4.13;;;;;;;;;;5092334;28;20024;-61
2023/04/17 07:59:51;;;;;;;4.60;4.15;;;;;;;;;;5091155;28;20024;-61
2023/04/17 08:02:18;;;;;;;5.22;4.13;;;;;;;;;;5088903;28;20028;-61
2023/04/17 08:04:43;;;;;;;6.05;4.43;;;;;;;;;;5071474;28;20016;-61
2023/04/17 08:07:11;;;;;;;6.05;4.38;;;;;;;;;;5091096;28;20031;-61
2023/04/17 08:09:37;;;;;;;7.70;4.45;;;;;;;;;;5093327;28;20024;-61
2023/04/17 08:12:03;;;;;;;5.32;4.55;;;;;;;;;;5091408;28;20030;-61
2023/04/17 08:14:29;;;;;;;4.70;4.20;;;;;;;;;;5092135;28;20024;-62
2023/04/17 08:16:54;;;;;;;6.43;4.43;;;;;;;;;;5090548;28;20048;-62
2023/04/17 08:19:20;;;;;;;5.35;4.30;;;;;;;;;;5092062;28;20451;-61
2023/04/17 08:21:49;;;;;;;5.43;4.40;;;;;;;;;;5087820;28;20052;-63
2023/04/17 08:24:16;;;;;;;6.53;4.50;;;;;;;;;;5091046;28;20472;-62
2023/04/17 08:26:42;;;;;;;7.38;4.72;;;;;;;;;;5087413;28;20132;-62
2023/04/17 08:29:08;;;;;;;6.88;4.97;;;;;;;;;;5089142;28;20568;-64
2023/04/17 08:31:38;;;;;;;5.35;4.50;;;;;;;;;;5092889;28;20024;-61
2023/04/17 08:34:04;;;;;;;5.00;4.32;;;;;;;;;;5091121;28;20044;-62
2023/04/17 08:36:30;;;;;;;8.18;5.10;;;;;;;;;;5086964;28;20113;-61
2023/04/17 08:38:56;;;;;;;6.28;4.75;;;;;;;;;;5087139;28;20028;-62
2023/04/17 08:41:26;;;;;;;7.20;5.22;;;;;;;;;;5091269;28;20111;-60
2023/04/17 08:43:55;;;;;;;5.50;4.85;;;;;;;;;;5091234;28;20506;-62
2023/04/17 08:46:21;;;;;;;5.53;4.95;;;;;;;;;;5090955;28;20064;-63
2023/04/17 08:48:47;;;;;;;6.35;5.50;;;;;;;;;;5072780;28;20035;-60
2023/04/17 08:51:14;;;;;;;9.05;4.90;;;;;;;;;;5090712;28;20024;-61
2023/04/17 08:53:40;;;;;;;8.00;5.10;;;;;;;;;;5088605;28;20456;-64
2023/04/17 08:56:06;;;;;;;6.72;4.68;;;;;;;;;;5089791;28;20091;-65
2023/04/17 08:58:33;;;;;;;6.43;4.95;;;;;;;;;;5090459;28;20028;-63
2023/04/17 09:01:16;;;;;;;7.75;5.10;;;;;;;;;;5090856;28;20035;-60
2023/04/17 09:03:47;;;;;;;8.02;5.20;;;;;;;;;;5090758;28;20028;-61
2023/04/17 09:06:14;;;;;;;7.65;4.85;;;;;;;;;;5090758;28;20024;-61
2023/04/17 09:08:59;;;;;;;6.70;5.35;;;;;;;;;;5088518;28;20031;-64
2023/04/17 09:11:25;;;;;;;5.72;5.22;;;;;;;;;;5082332;28;20420;-63
2023/04/17 09:13:51;;;;;;;6.53;5.30;;;;;;;;;;5088307;28;20525;-65
2023/04/17 09:16:20;;;;;;;7.28;5.47;;;;;;;;;;5089877;28;20028;-63
2023/04/17 09:18:47;;;;;;;5.80;5.15;;;;;;;;;;5090893;28;20420;-65
2023/04/17 09:21:15;;;;;;;8.10;5.63;;;;;;;;;;5090617;28;20028;-62
2023/04/17 09:23:55;;;;;;;6.93;5.90;;;;;;;;;;5090737;28;20377;-61
2023/04/17 09:26:30;;;;;;;6.47;5.50;;;;;;;;;;5090529;28;20074;-63
2023/04/17 09:29:07;;;;;;;6.45;5.25;;;;;;;;;;5090854;28;20115;-61
2023/04/17 09:31:33;;;;;;;6.68;5.68;;;;;;;;;;5090461;28;20468;-65
2023/04/17 09:34:00;;;;;;;8.05;5.57;;;;;;;;;;5090443;28;20077;-64
2023/04/17 09:36:29;;;;;;;7.78;5.30;;;;;;;;;;5088815;28;20031;-62
2023/04/17 09:38:55;;;;;;;7.57;5.35;;;;;;;;;;5090707;28;20036;-61
2023/04/17 09:41:23;;;;;;;8.60;5.35;;;;;;;;;;5090733;28;20050;-67
2023/04/17 09:43:48;;;;;;;8.18;5.45;;;;;;;;;;5094178;28;20128;-64
2023/04/17 09:46:34;;;;;;;7.32;5.32;;;;;;;;;;5094306;28;20118;-65
2023/04/17 09:49:05;;;;;;;6.47;4.93;;;;;;;;;;5094411;28;20126;-62
2023/04/17 09:51:31;;;;;;;8.27;5.68;;;;;;;;;;5094586;28;20139;-61
2023/04/17 09:53:59;;;;;;;8.90;5.72;;;;;;;;;;5094217;28;20031;-63
2023/04/17 09:56:28;;;;;;;6.63;5.65;;;;;;;;;;5094315;28;20118;-63
2023/04/17 09:58:54;;;;;;;13.13;6.05;;;;;;;;;;5094222;28;20024;-62
2023/04/17 10:01:20;;;;;;;8.00;6.10;;;;;;;;;;5089930;28;20488;-60
2023/04/17 10:03:47;;;;;;;9.10;5.82;;;;;;;;;;5094137;28;20357;-63
2023/04/17 10:06:13;;;;;;;10.20;5.85;;;;;;;;;;5094129;28;20094;-61
2023/04/17 10:08:40;;;;;;;8.82;5.65;;;;;;;;;;5074447;28;20036;-60
2023/04/17 10:11:06;;;;;;;11.45;5.90;;;;;;;;;;5094453;28;20047;-61
2023/04/17 10:13:40;;;;;;;9.13;5.68;;;;;;;;;;5094268;28;20493;-63
2023/04/17 10:16:06;;;;;;;10.68;5.85;;;;;;;;;;5094016;28;20032;-60
2023/04/17 10:18:32;;;;;;;8.50;5.60;;;;;;;;;;5093132;28;20028;-61
2023/04/17 10:21:23;;;;;;;7.47;5.80;;;;;;;;;;5094151;28;20028;-63
2023/04/17 10:23:49;;;;;;;8.05;6.10;;;;;;;;;;5075863;28;20024;-62
2023/04/17 10:26:24;;;;;;;7.75;5.97;;;;;;;;;;5093522;28;20161;-62
2023/04/17 10:28:51;;;;;;;9.93;6.68;;;;;;;;;;5093438;28;20086;-63
2023/04/17 10:31:22;;;;;;;8.20;6.18;;;;;;;;;;5093389;28;20051;-61
2023/04/17 10:33:49;;;;;;;7.28;6.13;;;;;;;;;;5093545;28;20420;-62
2023/04/17 10:36:39;;;;;;;9.00;5.60;;;;;;;;;;5093723;28;20040;-63
2023/04/17 10:39:15;;;;;;;;;;;;;;;;;;5094311;28;20512;-62
2023/04/17 10:42:03;;;;;;;9.65;6.22;;;;;;;;;;5093536;28;20268;-62
2023/04/17 10:44:33;;;;;;;6.78;5.85;;;;;;;;;;5091447;28;20063;-63
2023/04/17 10:47:05;;;;;;;7.63;6.00;;;;;;;;;;5093203;28;20090;-63
2023/04/17 10:49:52;;;;;;;9.43;6.22;;;;;;;;;;5090418;28;20147;-63
2023/04/17 10:52:39;;;;;;;8.85;5.95;;;;;;;;;;5091035;28;20105;-62
2023/04/17 10:55:16;;;;;;;8.63;6.18;;;;;;;;;;5093641;28;20031;-63
2023/04/17 10:58:10;;;;;;;8.35;6.00;;;;;;;;;;5093065;28;20039;-62
2023/04/17 11:00:47;;;;;;;7.45;6.00;;;;;;;;;;5092007;28;20385;-62
2023/04/17 11:03:15;;;;;;;8.82;6.43;;;;;;;;;;5093034;28;20032;-62
2023/04/17 11:05:45;;;;;;;7.22;6.05;;;;;;;;;;5092791;28;20477;-64
2023/04/17 11:08:15;;;;;;;8.88;6.50;;;;;;;;;;5092827;28;20028;-62
2023/04/17 11:10:40;;;;;;;6.85;6.15;;;;;;;;;;5092946;28;20468;-62
2023/04/17 11:13:06;;;;;;;9.65;6.20;;;;;;;;;;5092784;28;20031;-62
2023/04/17 11:15:34;;;;;;;10.50;6.10;;;;;;;;;;5088264;28;20548;-61
2023/04/17 11:18:01;;;;;;;7.28;6.05;;;;;;;;;;5092810;28;20385;-63
2023/04/17 11:20:31;;;;;;;10.23;6.82;;;;;;;;;;5092216;28;20031;-63
2023/04/17 11:23:01;;;;;;;7.28;6.15;;;;;;;;;;5073304;28;20061;-62
2023/04/17 11:25:30;;;;;;;14.40;6.85;;;;;;;;;;5073945;28;20055;-62
2023/04/17 11:28:00;;;;;;;9.07;5.50;;;;;;;;;;5092395;28;20035;-64
2023/04/17 11:30:28;;;;;;;8.45;5.63;;;;;;;;;;5092188;28;20023;-59
2023/04/17 11:32:59;;;;;;;7.03;5.10;;;;;;;;;;5091884;28;20741;-61
2023/04/17 11:35:32;;;;;;;11.95;6.63;;;;;;;;;;5091477;28;20076;-63
2023/04/17 11:38:22;;;;;;;16.50;6.10;;;;;;;;;;5092573;28;20059;-62
2023/04/17 11:40:59;;;;;;;6.80;6.07;;;;;;;;;;5092050;28;20032;-61
2023/04/17 11:43:28;;;;;;;13.63;6.30;;;;;;;;;;5092176;28;20068;-60
2023/04/17 11:45:55;;;;;;;7.63;5.95;;;;;;;;;;5091882;28;20028;-64
2023/04/17 11:48:23;;;;;;;7.95;6.10;;;;;;;;;;5092409;28;20024;-63
2023/04/17 11:50:54;;;;;;;11.93;6.03;;;;;;;;;;5090222;28;20031;-62
2023/04/17 11:53:19;;;;;;;9.35;6.10;;;;;;;;;;5091991;28;20016;-66
2023/04/17 11:55:45;;;;;;;12.60;5.93;;;;;;;;;;5073613;28;20101;-61
2023/04/17 11:58:12;;;;;;;10.65;5.88;;;;;;;;;;5092235;28;20107;-66
2023/04/17 12:00:39;;;;;;;11.60;6.70;;;;;;;;;;5091727;28;20020;-63
2023/04/17 12:03:33;;;;;;;8.82;6.10;;;;;;;;;;5091589;28;20039;-60
2023/04/17 12:06:07;;;;;;;11.52;7.38;;;;;;;;;;5091445;28;20133;-67
2023/04/17 12:08:48;;;;;;;11.00;6.47;;;;;;;;;;5091857;28;20106;-61
2023/04/17 12:11:16;;;;;;;10.68;6.78;;;;;;;;;;5091611;28;20804;-62
2023/04/17 12:13:42;;;;;;;10.25;6.15;;;;;;;;;;5089885;28;20430;-64
2023/04/17 12:16:07;;;;;;;8.43;6.00;;;;;;;;;;5089170;28;20031;-61
2023/04/17 12:18:33;;;;;;;12.15;5.95;;;;;;;;;;5091216;28;20043;-65
2023/04/17 12:20:58;;;;;;;16.45;6.30;;;;;;;;;;5088635;28;20499;-63
2023/04/17 12:23:24;;;;;;;11.10;6.25;;;;;;;;;;5091654;28;20483;-63
2023/04/17 12:25:49;;;;;;;20.77;7.20;;;;;;;;;;5090017;28;20380;-64
2023/04/17 12:28:15;;;;;;;20.33;6.90;;;;;;;;;;5076441;28;20042;-67
2023/04/17 12:30:41;;;;;;;21.35;7.63;;;;;;;;;;5071174;28;20434;-62
2023/04/17 12:33:07;;;;;;;12.70;6.40;;;;;;;;;;5052818;28;20024;-66
2023/04/17 12:35:33;;;;;;;12.15;6.85;;;;;;;;;;5070972;28;20060;-60
2023/04/17 12:37:59;;;;;;;9.45;6.80;;;;;;;;;;5070867;28;20067;-63
2023/04/17 12:40:25;;;;;;;15.75;6.68;;;;;;;;;;5070860;28;20021;-61
2023/04/17 12:42:50;;;;;;;9.20;6.22;;;;;;;;;;5071043;28;20086;-67
2023/04/17 12:45:17;;;;;;;8.85;5.57;;;;;;;;;;5070751;28;20071;-63
2023/04/17 12:47:43;;;;;;;11.80;6.55;;;;;;;;;;5070802;28;20380;-66
2023/04/17 12:50:10;;;;;;;11.05;6.22;;;;;;;;;;5070568;28;20035;-62
2023/04/17 12:52:36;;;;;;;12.68;5.70;;;;;;;;;;5070861;28;20055;-66
2023/04/17 12:55:06;;;;;;;11.43;6.15;;;;;;;;;;5071008;28;20024;-60
2023/04/17 12:57:32;;;;;;;10.23;6.47;;;;;;;;;;5052489;28;20173;-60
2023/04/17 12:59:58;;;;;;;16.60;7.07;;;;;;;;;;5070520;28;20032;-64
2023/04/17 13:02:23;;;;;;;12.93;6.38;;;;;;;;;;5070577;28;20085;-65
2023/04/17 13:04:50;;;;;;;8.65;6.00;;;;;;;;;;5070810;28;20110;-62
2023/04/17 13:07:19;;;;;;;12.40;6.22;;;;;;;;;;5070283;28;20484;-60
2023/04/17 13:09:45;;;;;;;20.83;7.13;;;;;;;;;;5070640;28;20120;-59
2023/04/17 13:12:12;;;;;;;13.82;6.95;;;;;;;;;;5070348;28;20559;-58
2023/04/17 13:14:38;;;;;;;16.35;6.82;;;;;;;;;;5087197;28;20503;-64
2023/04/17 13:17:05;;;;;;;11.60;7.45;;;;;;;;;;5091142;28;20403;-69
2023/04/17 13:19:34;;;;;;;9.57;6.47;;;;;;;;;;5094934;28;20034;-63
2023/04/17 13:22:00;;;;;;;9.90;6.78;;;;;;;;;;5076888;28;20024;-59
2023/04/17 13:24:26;;;;;;;12.35;6.97;;;;;;;;;;5094756;28;20030;-64
2023/04/17 13:26:51;;;;;;;14.68;7.85;;;;;;;;;;5094587;28;20085;-63
2023/04/17 13:29:17;;;;;;;16.88;7.95;;;;;;;;;;5094583;28;20028;-66
2023/04/17 13:31:43;;;;;;;22.00;8.88;;;;;;;;;;5094923;28;20021;-62
2023/04/17 13:34:10;;;;;;;15.07;8.13;;;;;;;;;;5094395;28;20048;-62
2023/04/17 13:36:36;;;;;;;19.40;9.60;;;;;;;;;;5089239;28;20032;-64
2023/04/17 13:39:03;;;;;;;14.60;8.30;;;;;;;;;;5074536;28;20024;-66
2023/04/17 13:41:28;;;;;;;14.50;7.72;;;;;;;;;;5074654;28;20423;-65
2023/04/17 13:43:54;;;;;;;20.23;8.80;;;;;;;;;;5074533;28;20069;-65
2023/04/17 13:46:20;;;;;;;23.73;9.43;;;;;;;;;;5074401;28;20506;-64
2023/04/17 13:48:46;;;;;;;19.15;9.52;;;;;;;;;;5082430;28;20031;-63
2023/04/17 13:51:12;;;;;;;13.73;8.32;;;;;;;;;;5093093;28;20028;-67
2023/04/17 13:53:38;;;;;;;11.07;8.18;;;;;;;;;;5077188;28;20021;-58
2023/04/17 13:56:04;;;;;;;13.45;8.63;;;;;;;;;;5073907;28;20035;-58
2023/04/17 13:58:29;;;;;;;18.55;8.82;;;;;;;;;;5086447;28;20081;-58
2023/04/17 14:00:55;;;;;;;15.95;8.82;;;;;;;;;;5094329;28;20081;-66
2023/04/17 14:03:20;;;;;;;16.65;10.25;;;;;;;;;;5094265;28;20126;-59
2023/04/17 14:05:46;;;;;;;15.20;9.38;;;;;;;;;;5093653;28;20157;-61
2023/04/17 14:08:11;;;;;;;17.40;8.90;;;;;;;;;;5059508;28;20046;-61
2023/04/17 14:10:37;;;;;;;16.65;8.38;;;;;;;;;;5093887;28;20021;-62
2023/04/17 14:13:02;;;;;;;14.02;8.38;;;;;;;;;;5092304;28;20028;-61
2023/04/17 14:15:28;;;;;;;12.40;6.90;;;;;;;;;;5092160;28;20108;-57
2023/04/17 14:17:55;;;;;;;14.85;6.22;;;;;;;;;;5092072;28;20361;-64
2023/04/17 14:20:21;;;;;;;16.63;5.75;;;;;;;;;;5093432;28;20032;-62
2023/04/17 14:22:46;;;;;;;9.93;5.65;;;;;;;;;;5093722;28;20016;-60
2023/04/17 14:25:15;;;;;;;9.52;5.40;;;;;;;;;;5075590;28;20034;-64
2023/04/17 14:27:40;;;;;;;9.98;5.05;;;;;;;;;;5093527;28;20032;-66
2023/04/17 14:30:07;;;;;;;9.45;4.88;;;;;;;;;;5093724;28;20043;-58
2023/04/17 14:32:33;;;;;;;5.97;4.35;;;;;;;;;;5093630;28;20044;-61
2023/04/17 14:34:59;;;;;;;8.98;4.47;;;;;;;;;;5093097;28;20040;-65
2023/04/17 14:37:25;;;;;;;9.13;4.22;;;;;;;;;;5093560;28;20062;-65
2023/04/17 14:39:51;;;;;;;4.70;3.90;;;;;;;;;;5093271;28;20047;-59